Terminal Aerodrome Forecast
Issued by NWS

Home | Current Version | Previous Version | Text Only | Print | Product List | Glossary On
Versions: 1 2 3 4 5 6 7 8 9 10 11 12
896
FTAK31 PAJN 061143
TAFAWG
TAF
PAWG 061143Z 0612/0712 16006KT P6SM -RA SCT025 OVC035
     FM061500 13014G21KT P6SM -RA SCT010 SCT025 OVC030 WS020/18040KT
      TEMPO 0615/0619 5SM RA BR BKN025 OVC035
     FM061900 13015G28KT 5SM +RA BR BKN025 OVC040 WS020/18040KT
     FM070200 13012KT P6SM -RA SCT020 OVC035
     FM070400 13008KT 6SM -SHRA SCT015 OVC035
      AMD LTD TO CLD VIS AND WIND 0712/0715=

USA.gov is the U.S. government's official web portal to all federal, state and local government web resources and services.